sensor_id;sensor_type;location;lat;lon;timestamp;pressure;altitude;pressure_sealevel;temperature;humidity
63090;BME280;49174;43.198;27.824;2023-04-22T03:57:24;101379.97;;;7.66;100.00
63090;BME280;49174;43.198;27.824;2023-04-22T04:48:57;101448.91;;;8.50;100.00
63090;BME280;49174;43.198;27.824;2023-04-22T05:47:49;101493.03;;;10.81;98.02
63090;BME280;49174;43.198;27.824;2023-04-22T05:50:15;101496.34;;;10.91;95.93
63090;BME280;49174;43.198;27.824;2023-04-22T05:52:40;101495.53;;;11.05;93.17
63090;BME280;49174;43.198;27.824;2023-04-22T05:55:06;101492.91;;;11.20;93.29
63090;BME280;49174;43.198;27.824;2023-04-22T06:05:51;101503.25;;;11.84;88.50
63090;BME280;49174;43.198;27.824;2023-04-22T06:08:17;101499.06;;;11.96;87.68
63090;BME280;49174;43.198;27.824;2023-04-22T06:24:05;101512.91;;;13.45;69.39
63090;BME280;49174;43.198;27.824;2023-04-22T06:29:14;101514.09;;;13.64;68.16
63090;BME280;49174;43.198;27.824;2023-04-22T06:31:39;101519.38;;;13.72;67.04
63090;BME280;49174;43.198;27.824;2023-04-22T06:34:06;101523.38;;;13.76;67.07
63090;BME280;49174;43.198;27.824;2023-04-22T06:36:31;101519.03;;;13.82;67.20
63090;BME280;49174;43.198;27.824;2023-04-22T06:39:02;101520.69;;;13.83;65.69
63090;BME280;49174;43.198;27.824;2023-04-22T06:41:30;101521.38;;;13.92;65.04
63090;BME280;49174;43.198;27.824;2023-04-22T06:43:57;101527.88;;;13.97;65.97
63090;BME280;49174;43.198;27.824;2023-04-22T06:49:05;101531.84;;;14.43;64.16
63090;BME280;49174;43.198;27.824;2023-04-22T06:51:30;101533.03;;;14.68;65.38
63090;BME280;49174;43.198;27.824;2023-04-22T07:15:45;101543.97;;;16.46;51.81
63090;BME280;49174;43.198;27.824;2023-04-22T07:18:36;101539.09;;;16.62;53.03
63090;BME280;49174;43.198;27.824;2023-04-22T07:21:01;101545.34;;;16.69;51.31
63090;BME280;49174;43.198;27.824;2023-04-22T07:23:27;101549.09;;;16.81;51.69
63090;BME280;49174;43.198;27.824;2023-04-22T07:25:53;101554.47;;;16.88;52.04
63090;BME280;49174;43.198;27.824;2023-04-22T07:28:18;101550.84;;;17.01;50.61
63090;BME280;49174;43.198;27.824;2023-04-22T07:30:44;101557.50;;;17.11;52.77
63090;BME280;49174;43.198;27.824;2023-04-22T07:33:10;101554.53;;;17.13;51.81
63090;BME280;49174;43.198;27.824;2023-04-22T07:35:36;101561.03;;;17.12;52.14
63090;BME280;49174;43.198;27.824;2023-04-22T07:38:02;101554.88;;;17.23;52.32
63090;BME280;49174;43.198;27.824;2023-04-22T07:40:27;101553.44;;;17.46;51.81
63090;BME280;49174;43.198;27.824;2023-04-22T07:42:53;101558.28;;;17.69;49.63
63090;BME280;49174;43.198;27.824;2023-04-22T07:45:19;101558.72;;;17.91;49.19
63090;BME280;49174;43.198;27.824;2023-04-22T07:47:44;101566.69;;;17.92;50.44
63090;BME280;49174;43.198;27.824;2023-04-22T07:50:10;101558.13;;;18.07;50.50
63090;BME280;49174;43.198;27.824;2023-04-22T07:52:36;101563.53;;;18.32;49.09
63090;BME280;49174;43.198;27.824;2023-04-22T07:55:02;101563.22;;;18.40;50.78
63090;BME280;49174;43.198;27.824;2023-04-22T07:57:28;101564.25;;;18.58;48.98
63090;BME280;49174;43.198;27.824;2023-04-22T07:59:55;101562.34;;;18.58;49.55
63090;BME280;49174;43.198;27.824;2023-04-22T08:02:20;101566.38;;;18.74;48.23
63090;BME280;49174;43.198;27.824;2023-04-22T08:04:47;101568.56;;;18.84;46.91
63090;BME280;49174;43.198;27.824;2023-04-22T08:07:13;101556.09;;;18.88;47.53
63090;BME280;49174;43.198;27.824;2023-04-22T08:09:39;101564.53;;;18.86;47.55
63090;BME280;49174;43.198;27.824;2023-04-22T08:12:04;101566.31;;;18.81;46.19
63090;BME280;49174;43.198;27.824;2023-04-22T08:14:30;101558.69;;;18.83;46.48
63090;BME280;49174;43.198;27.824;2023-04-22T08:16:55;101553.13;;;18.89;46.09
63090;BME280;49174;43.198;27.824;2023-04-22T08:19:21;101556.19;;;19.11;45.74
63090;BME280;49174;43.198;27.824;2023-04-22T08:21:46;101551.06;;;19.15;45.38
63090;BME280;49174;43.198;27.824;2023-04-22T08:24:13;101552.00;;;19.09;45.43
63090;BME280;49174;43.198;27.824;2023-04-22T08:26:38;101546.56;;;19.20;44.03
63090;BME280;49174;43.198;27.824;2023-04-22T08:29:05;101549.44;;;19.26;44.34
63090;BME280;49174;43.198;27.824;2023-04-22T08:31:31;101550.00;;;19.28;42.73
63090;BME280;49174;43.198;27.824;2023-04-22T08:33:56;101542.59;;;19.16;44.09
63090;BME280;49174;43.198;27.824;2023-04-22T08:36:22;101535.63;;;19.20;43.64
63090;BME280;49174;43.198;27.824;2023-04-22T08:38:50;101546.69;;;19.26;42.60
63090;BME280;49174;43.198;27.824;2023-04-22T08:41:17;101538.16;;;19.34;44.58
63090;BME280;49174;43.198;27.824;2023-04-22T08:43:43;101540.28;;;19.55;42.59
63090;BME280;49174;43.198;27.824;2023-04-22T08:46:10;101540.28;;;19.55;41.50
63090;BME280;49174;43.198;27.824;2023-04-22T08:48:36;101533.50;;;19.58;43.06
63090;BME280;49174;43.198;27.824;2023-04-22T08:51:02;101523.28;;;19.65;41.86
63090;BME280;49174;43.198;27.824;2023-04-22T08:53:27;101530.81;;;19.70;43.05
63090;BME280;49174;43.198;27.824;2023-04-22T08:55:55;101529.38;;;19.79;43.20
63090;BME280;49174;43.198;27.824;2023-04-22T08:58:22;101527.25;;;19.81;41.46
63090;BME280;49174;43.198;27.824;2023-04-22T09:00:48;101526.03;;;19.89;42.47
63090;BME280;49174;43.198;27.824;2023-04-22T09:03:14;101522.56;;;19.93;44.15
63090;BME280;49174;43.198;27.824;2023-04-22T09:05:40;101533.41;;;19.88;44.58
63090;BME280;49174;43.198;27.824;2023-04-22T09:08:08;101529.59;;;19.77;43.94
63090;BME280;49174;43.198;27.824;2023-04-22T09:10:37;101532.00;;;19.74;44.59
63090;BME280;49174;43.198;27.824;2023-04-22T09:13:04;101526.19;;;19.70;43.82
63090;BME280;49174;43.198;27.824;2023-04-22T09:15:31;101532.19;;;19.60;45.14
63090;BME280;49174;43.198;27.824;2023-04-22T09:17:57;101532.31;;;19.42;43.40
63090;BME280;49174;43.198;27.824;2023-04-22T09:20:27;101521.25;;;19.37;43.74
63090;BME280;49174;43.198;27.824;2023-04-22T09:22:55;101524.25;;;19.59;44.53
63090;BME280;49174;43.198;27.824;2023-04-22T09:25:24;101530.91;;;19.75;44.97
63090;BME280;49174;43.198;27.824;2023-04-22T09:27:51;101524.00;;;19.96;42.68
63090;BME280;49174;43.198;27.824;2023-04-22T09:30:22;101524.41;;;20.28;46.01
63090;BME280;49174;43.198;27.824;2023-04-22T09:32:56;101524.66;;;20.67;41.44
63090;BME280;49174;43.198;27.824;2023-04-22T09:35:38;101511.16;;;20.94;45.18
63090;BME280;49174;43.198;27.824;2023-04-22T09:38:08;101521.75;;;21.19;40.36
63090;BME280;49174;43.198;27.824;2023-04-22T09:40:35;101525.06;;;21.21;42.64
63090;BME280;49174;43.198;27.824;2023-04-22T09:43:02;101519.56;;;20.87;40.42
63090;BME280;49174;43.198;27.824;2023-04-22T09:45:36;101520.88;;;20.85;41.14
63090;BME280;49174;43.198;27.824;2023-04-22T09:48:13;101513.56;;;20.90;40.22
63090;BME280;49174;43.198;27.824;2023-04-22T09:50:42;101519.97;;;20.79;40.30
63090;BME280;49174;43.198;27.824;2023-04-22T09:53:10;101519.88;;;20.91;40.60
63090;BME280;49174;43.198;27.824;2023-04-22T09:55:41;101513.38;;;20.80;42.05
63090;BME280;49174;43.198;27.824;2023-04-22T09:58:18;101513.09;;;20.93;40.18
63090;BME280;49174;43.198;27.824;2023-04-22T10:00:51;101516.94;;;21.26;42.23
63090;BME280;49174;43.198;27.824;2023-04-22T10:03:17;101511.97;;;21.57;39.19
63090;BME280;49174;43.198;27.824;2023-04-22T10:05:43;101522.28;;;21.50;39.03
63090;BME280;49174;43.198;27.824;2023-04-22T10:08:11;101519.13;;;21.41;38.75
63090;BME280;49174;43.198;27.824;2023-04-22T10:10:37;101518.00;;;21.59;38.85
63090;BME280;49174;43.198;27.824;2023-04-22T10:13:04;101511.09;;;21.73;37.66
63090;BME280;49174;43.198;27.824;2023-04-22T10:15:56;101501.53;;;21.98;38.02
63090;BME280;49174;43.198;27.824;2023-04-22T10:18:24;101515.84;;;22.00;37.59
63090;BME280;49174;43.198;27.824;2023-04-22T10:20:52;101508.19;;;22.02;37.52
63090;BME280;49174;43.198;27.824;2023-04-22T10:23:21;101508.91;;;22.36;38.40
63090;BME280;49174;43.198;27.824;2023-04-22T10:25:48;101514.91;;;22.55;37.48
63090;BME280;49174;43.198;27.824;2023-04-22T10:28:15;101508.81;;;22.26;37.37
63090;BME280;49174;43.198;27.824;2023-04-22T10:30:41;101506.66;;;22.55;38.61
63090;BME280;49174;43.198;27.824;2023-04-22T10:38:39;101509.22;;;21.57;38.81
63090;BME280;49174;43.198;27.824;2023-04-22T10:41:05;101507.88;;;21.26;40.43
63090;BME280;49174;43.198;27.824;2023-04-22T10:43:48;101505.91;;;21.38;40.62
63090;BME280;49174;43.198;27.824;2023-04-22T10:48:58;101505.63;;;20.60;40.38
63090;BME280;49174;43.198;27.824;2023-04-22T10:51:46;101494.09;;;20.75;40.40
63090;BME280;49174;43.198;27.824;2023-04-22T10:57:08;101499.03;;;20.61;40.13
63090;BME280;49174;43.198;27.824;2023-04-22T10:59:56;101508.03;;;20.57;41.54
63090;BME280;49174;43.198;27.824;2023-04-22T11:02:23;101501.41;;;20.29;40.44
63090;BME280;49174;43.198;27.824;2023-04-22T11:04:49;101506.34;;;20.56;40.70
63090;BME280;49174;43.198;27.824;2023-04-22T11:07:29;101498.47;;;21.05;40.02
63090;BME280;49174;43.198;27.824;2023-04-22T11:15:03;101501.44;;;21.20;39.16
63090;BME280;49174;43.198;27.824;2023-04-22T11:17:29;101499.47;;;20.98;40.21
63090;BME280;49174;43.198;27.824;2023-04-22T11:19:56;101501.38;;;20.69;43.11
63090;BME280;49174;43.198;27.824;2023-04-22T11:22:25;101503.41;;;20.74;39.49
63090;BME280;49174;43.198;27.824;2023-04-22T11:24:59;101506.44;;;21.06;38.66
63090;BME280;49174;43.198;27.824;2023-04-22T11:27:25;101507.53;;;21.22;39.88
63090;BME280;49174;43.198;27.824;2023-04-22T11:32:42;101491.44;;;21.64;38.58
63090;BME280;49174;43.198;27.824;2023-04-22T11:35:13;101500.13;;;22.17;37.01
63090;BME280;49174;43.198;27.824;2023-04-22T11:37:47;101496.81;;;21.93;38.52
63090;BME280;49174;43.198;27.824;2023-04-22T11:40:16;101501.06;;;21.84;38.52
63090;BME280;49174;43.198;27.824;2023-04-22T11:42:42;101496.28;;;21.74;39.58
63090;BME280;49174;43.198;27.824;2023-04-22T11:45:08;101498.84;;;22.03;40.85
63090;BME280;49174;43.198;27.824;2023-04-22T11:47:34;101495.00;;;22.48;38.90
63090;BME280;49174;43.198;27.824;2023-04-22T11:50:02;101495.31;;;22.79;37.49
63090;BME280;49174;43.198;27.824;2023-04-22T11:53:02;101493.75;;;23.10;40.19
63090;BME280;49174;43.198;27.824;2023-04-22T11:55:30;101497.16;;;23.27;36.94
63090;BME280;49174;43.198;27.824;2023-04-22T11:58:04;101498.28;;;23.31;39.01
63090;BME280;49174;43.198;27.824;2023-04-22T12:00:32;101497.56;;;23.41;38.59
63090;BME280;49174;43.198;27.824;2023-04-22T12:03:00;101492.88;;;23.41;36.93
63090;BME280;49174;43.198;27.824;2023-04-22T12:05:44;101497.84;;;23.07;37.72
63090;BME280;49174;43.198;27.824;2023-04-22T12:08:14;101493.94;;;23.03;36.38
63090;BME280;49174;43.198;27.824;2023-04-22T12:10:41;101497.31;;;23.10;36.75
63090;BME280;49174;43.198;27.824;2023-04-22T12:13:07;101493.50;;;23.16;37.34
63090;BME280;49174;43.198;27.824;2023-04-22T12:15:40;101493.25;;;23.55;39.75
63090;BME280;49174;43.198;27.824;2023-04-22T12:18:06;101506.03;;;23.72;37.04
63090;BME280;49174;43.198;27.824;2023-04-22T12:20:33;101500.88;;;23.43;39.74
63090;BME280;49174;43.198;27.824;2023-04-22T12:22:59;101495.03;;;23.02;40.79
63090;BME280;49174;43.198;27.824;2023-04-22T12:25:26;101502.66;;;22.41;41.15
63090;BME280;49174;43.198;27.824;2023-04-22T12:27:51;101494.50;;;21.46;42.99
63090;BME280;49174;43.198;27.824;2023-04-22T12:30:17;101502.88;;;20.20;44.63
63090;BME280;49174;43.198;27.824;2023-04-22T12:32:42;101505.41;;;19.15;46.48
63090;BME280;49174;43.198;27.824;2023-04-22T12:35:08;101513.91;;;18.65;49.45
63090;BME280;49174;43.198;27.824;2023-04-22T12:37:34;101518.00;;;18.74;54.09
63090;BME280;49174;43.198;27.824;2023-04-22T12:39:59;101513.09;;;18.95;53.47
63090;BME280;49174;43.198;27.824;2023-04-22T12:42:25;101509.97;;;17.51;56.62
63090;BME280;49174;43.198;27.824;2023-04-22T12:44:50;101520.97;;;17.12;59.42
63090;BME280;49174;43.198;27.824;2023-04-22T12:47:16;101525.97;;;17.65;60.00
63090;BME280;49174;43.198;27.824;2023-04-22T12:49:42;101522.16;;;18.10;57.62
63090;BME280;49174;43.198;27.824;2023-04-22T12:52:08;101517.75;;;17.47;59.41
63090;BME280;49174;43.198;27.824;2023-04-22T12:54:35;101514.59;;;17.25;60.22
63090;BME280;49174;43.198;27.824;2023-04-22T12:57:01;101526.59;;;17.42;59.65
63090;BME280;49174;43.198;27.824;2023-04-22T12:59:27;101514.63;;;17.18;60.85
63090;BME280;49174;43.198;27.824;2023-04-22T13:04:34;101511.50;;;17.65;59.15
63090;BME280;49174;43.198;27.824;2023-04-22T13:09:43;101526.13;;;17.96;59.18
63090;BME280;49174;43.198;27.824;2023-04-22T13:12:10;101523.66;;;18.43;61.27
63090;BME280;49174;43.198;27.824;2023-04-22T13:14:35;101519.97;;;18.37;59.54
63090;BME280;49174;43.198;27.824;2023-04-22T13:17:01;101514.13;;;18.15;58.61
63090;BME280;49174;43.198;27.824;2023-04-22T13:19:28;101518.00;;;18.07;59.97
63090;BME280;49174;43.198;27.824;2023-04-22T13:21:53;101523.31;;;17.59;60.55
63090;BME280;49174;43.198;27.824;2023-04-22T13:24:19;101527.75;;;17.03;62.80
63090;BME280;49174;43.198;27.824;2023-04-22T13:26:45;101527.63;;;16.46;67.00
63090;BME280;49174;43.198;27.824;2023-04-22T13:29:11;101526.28;;;16.69;64.60
63090;BME280;49174;43.198;27.824;2023-04-22T13:31:42;101522.44;;;16.83;66.04
63090;BME280;49174;43.198;27.824;2023-04-22T13:34:10;101524.09;;;17.16;64.85
63090;BME280;49174;43.198;27.824;2023-04-22T13:39:17;101532.13;;;17.86;63.14
63090;BME280;49174;43.198;27.824;2023-04-22T13:41:46;101530.44;;;18.03;60.54
63090;BME280;49174;43.198;27.824;2023-04-22T13:44:12;101535.97;;;18.15;60.32
63090;BME280;49174;43.198;27.824;2023-04-22T13:46:38;101531.44;;;18.09;59.42
63090;BME280;49174;43.198;27.824;2023-04-22T13:49:04;101540.06;;;18.24;58.61
63090;BME280;49174;43.198;27.824;2023-04-22T13:51:30;101536.84;;;17.72;60.93
63090;BME280;49174;43.198;27.824;2023-04-22T13:53:57;101535.88;;;17.60;61.25
63090;BME280;49174;43.198;27.824;2023-04-22T13:56:23;101532.69;;;17.88;59.42
63090;BME280;49174;43.198;27.824;2023-04-22T13:58:50;101545.75;;;18.04;58.95
63090;BME280;49174;43.198;27.824;2023-04-22T14:01:16;101533.94;;;17.67;62.24
63090;BME280;49174;43.198;27.824;2023-04-22T14:03:42;101540.63;;;17.71;62.68
63090;BME280;49174;43.198;27.824;2023-04-22T14:06:08;101535.09;;;17.78;62.28
63090;BME280;49174;43.198;27.824;2023-04-22T14:08:34;101525.50;;;17.50;60.66
63090;BME280;49174;43.198;27.824;2023-04-22T14:10:59;101527.75;;;17.03;62.20
63090;BME280;49174;43.198;27.824;2023-04-22T14:13:28;101532.09;;;16.79;62.15
63090;BME280;49174;43.198;27.824;2023-04-22T14:15:53;101534.81;;;16.79;65.49
63090;BME280;49174;43.198;27.824;2023-04-22T14:18:19;101532.22;;;17.23;64.35
63090;BME280;49174;43.198;27.824;2023-04-22T14:20:49;101534.72;;;17.24;62.60
63090;BME280;49174;43.198;27.824;2023-04-22T14:23:15;101551.09;;;17.24;64.32
63090;BME280;49174;43.198;27.824;2023-04-22T14:25:42;101545.97;;;17.34;62.93
63090;BME280;49174;43.198;27.824;2023-04-22T14:28:09;101554.81;;;17.30;63.17
63090;BME280;49174;43.198;27.824;2023-04-22T14:30:34;101553.03;;;16.85;64.44
63090;BME280;49174;43.198;27.824;2023-04-22T14:33:01;101563.34;;;16.18;66.92
63090;BME280;49174;43.198;27.824;2023-04-22T14:35:26;101567.16;;;16.11;67.55
63090;BME280;49174;43.198;27.824;2023-04-22T14:37:52;101567.59;;;15.88;69.01
63090;BME280;49174;43.198;27.824;2023-04-22T14:40:18;101571.00;;;15.70;69.60
63090;BME280;49174;43.198;27.824;2023-04-22T14:42:44;101570.94;;;15.43;70.07
63090;BME280;49174;43.198;27.824;2023-04-22T14:45:10;101577.03;;;15.45;70.37
63090;BME280;49174;43.198;27.824;2023-04-22T14:47:36;101577.22;;;15.57;69.79
63090;BME280;49174;43.198;27.824;2023-04-22T14:50:01;101576.00;;;15.53;68.69
63090;BME280;49174;43.198;27.824;2023-04-22T14:52:27;101577.03;;;15.45;70.57
63090;BME280;49174;43.198;27.824;2023-04-22T14:54:53;101578.91;;;15.51;69.68
63090;BME280;49174;43.198;27.824;2023-04-22T14:57:18;101580.16;;;15.49;69.95
63090;BME280;49174;43.198;27.824;2023-04-22T14:59:44;101576.00;;;15.46;70.90
63090;BME280;49174;43.198;27.824;2023-04-22T15:02:12;101581.84;;;15.50;70.78
63090;BME280;49174;43.198;27.824;2023-04-22T15:04:42;101586.25;;;15.44;70.56
63090;BME280;49174;43.198;27.824;2023-04-22T15:07:08;101585.41;;;15.44;70.82
63090;BME280;49174;43.198;27.824;2023-04-22T15:09:34;101587.72;;;15.47;71.95
63090;BME280;49174;43.198;27.824;2023-04-22T15:12:00;101595.22;;;15.51;71.62
63090;BME280;49174;43.198;27.824;2023-04-22T15:14:30;101587.06;;;15.51;70.78
63090;BME280;49174;43.198;27.824;2023-04-22T15:16:56;101593.53;;;15.37;70.40
63090;BME280;49174;43.198;27.824;2023-04-22T15:19:22;101599.59;;;15.26;71.08
63090;BME280;49174;43.198;27.824;2023-04-22T15:21:47;101598.13;;;15.23;71.35
63090;BME280;49174;43.198;27.824;2023-04-22T15:24:13;101591.00;;;15.15;71.61
63090;BME280;49174;43.198;27.824;2023-04-22T15:26:38;101595.19;;;15.18;72.38
63090;BME280;49174;43.198;27.824;2023-04-22T15:29:05;101597.28;;;15.29;70.94
63090;BME280;49174;43.198;27.824;2023-04-22T15:31:30;101588.53;;;15.40;70.54
63090;BME280;49174;43.198;27.824;2023-04-22T15:33:56;101586.47;;;15.49;69.68
63090;BME280;49174;43.198;27.824;2023-04-22T15:36:21;101589.38;;;15.54;68.85
63090;BME280;49174;43.198;27.824;2023-04-22T15:38:52;101592.31;;;15.59;69.19
63090;BME280;49174;43.198;27.824;2023-04-22T15:41:19;101587.69;;;15.53;70.11
63090;BME280;49174;43.198;27.824;2023-04-22T15:43:45;101588.09;;;15.37;69.45
63090;BME280;49174;43.198;27.824;2023-04-22T16:32:04;101614.13;;;13.74;78.34
63090;BME280;49174;43.198;27.824;2023-04-22T16:40:13;101620.91;;;13.41;79.02
63090;BME280;49174;43.198;27.824;2023-04-22T16:42:39;101620.66;;;13.36;80.17
63090;BME280;49174;43.198;27.824;2023-04-22T16:45:05;101614.22;;;13.37;80.70
63090;BME280;49174;43.198;27.824;2023-04-22T16:47:32;101620.16;;;13.26;79.87
63090;BME280;49174;43.198;27.824;2023-04-22T16:49:57;101626.94;;;13.22;81.45
63090;BME280;49174;43.198;27.824;2023-04-22T16:52:23;101628.13;;;13.13;81.41
63090;BME280;49174;43.198;27.824;2023-04-22T16:54:48;101635.69;;;13.03;82.20
63090;BME280;49174;43.198;27.824;2023-04-22T16:57:15;101632.16;;;13.02;82.35
63090;BME280;49174;43.198;27.824;2023-04-22T16:59:43;101647.69;;;12.93;82.88
63090;BME280;49174;43.198;27.824;2023-04-22T17:02:08;101645.38;;;12.90;83.03
63090;BME280;49174;43.198;27.824;2023-04-22T17:04:34;101651.41;;;12.92;83.64
63090;BME280;49174;43.198;27.824;2023-04-22T17:07:00;101658.63;;;12.85;83.12
63090;BME280;49174;43.198;27.824;2023-04-22T17:09:25;101664.44;;;12.82;83.71
63090;BME280;49174;43.198;27.824;2023-04-22T17:11:51;101657.63;;;12.71;83.70
63090;BME280;49174;43.198;27.824;2023-04-22T17:14:16;101659.78;;;12.61;84.33
63090;BME280;49174;43.198;27.824;2023-04-22T17:16:42;101663.78;;;12.50;84.33
63090;BME280;49174;43.198;27.824;2023-04-22T17:19:07;101667.91;;;12.46;85.28
63090;BME280;49174;43.198;27.824;2023-04-22T17:21:33;101670.06;;;12.51;84.43
63090;BME280;49174;43.198;27.824;2023-04-22T17:23:59;101675.66;;;12.49;84.87
63090;BME280;49174;43.198;27.824;2023-04-22T17:26:26;101676.09;;;12.53;85.49
63090;BME280;49174;43.198;27.824;2023-04-22T17:28:52;101679.47;;;12.40;84.79
63090;BME280;49174;43.198;27.824;2023-04-22T17:31:18;101684.31;;;12.15;84.96
63090;BME280;49174;43.198;27.824;2023-04-22T17:33:43;101690.72;;;11.99;87.03
63090;BME280;49174;43.198;27.824;2023-04-22T17:36:09;101696.13;;;11.99;87.24
63090;BME280;49174;43.198;27.824;2023-04-22T17:38:34;101699.00;;;11.98;87.70
63090;BME280;49174;43.198;27.824;2023-04-22T17:41:00;101700.78;;;12.05;86.54
63090;BME280;49174;43.198;27.824;2023-04-22T17:43:25;101706.50;;;12.11;86.10
63090;BME280;49174;43.198;27.824;2023-04-22T17:45:51;101710.25;;;12.10;85.31
63090;BME280;49174;43.198;27.824;2023-04-22T17:48:17;101707.91;;;12.06;84.29
63090;BME280;49174;43.198;27.824;2023-04-22T17:50:44;101708.13;;;11.97;84.55
